createdAt,value
2022-08-31T00:04:38.538Z,2.7
2022-08-31T00:10:58.504Z,2.7
2022-08-31T00:17:21.469Z,2.4
2022-08-31T00:23:41.519Z,2.4
2022-08-31T00:30:04.494Z,1.9
2022-08-31T00:36:24.458Z,1.9
2022-08-31T00:42:47.504Z,4.2
2022-08-31T00:49:07.455Z,4.2
2022-08-31T00:55:30.485Z,3
2022-08-31T01:01:50.583Z,3
2022-08-31T01:08:13.464Z,4.3
2022-08-31T01:14:33.507Z,4.3
2022-08-31T01:20:56.487Z,3.8
2022-08-31T01:27:16.455Z,3.8
2022-08-31T01:33:39.504Z,1.3
2022-08-31T01:39:59.518Z,1.3
2022-08-31T01:46:22.541Z,4.5
2022-08-31T01:52:42.462Z,4.5
2022-08-31T01:59:08.255Z,5.4
2022-08-31T02:05:25.508Z,5.4
2022-08-31T02:11:48.459Z,3.4
2022-08-31T02:18:08.521Z,3.4
2022-08-31T02:24:31.456Z,6
2022-08-31T02:30:51.482Z,6
2022-08-31T02:37:14.503Z,5.6
2022-08-31T02:43:34.471Z,5.6
2022-08-31T02:49:57.518Z,4.6
2022-08-31T02:56:17.468Z,4.6
2022-08-31T03:02:40.610Z,4
2022-08-31T03:09:00.514Z,4
2022-08-31T03:15:23.469Z,4.6
2022-08-31T03:21:43.563Z,4.6
2022-08-31T03:28:06.493Z,5.9
2022-08-31T03:34:26.486Z,5.9
2022-08-31T03:40:49.546Z,7.8
2022-08-31T03:47:09.457Z,7.8
2022-08-31T03:53:32.540Z,7.5
2022-08-31T03:59:52.501Z,7.5
2022-08-31T04:22:59.426Z,5.3
2022-08-31T04:29:22.469Z,4.7
2022-08-31T04:35:42.539Z,4.7
2022-08-31T04:42:05.535Z,5.2
2022-08-31T04:48:25.463Z,5.2
2022-08-31T04:54:48.502Z,7.7
2022-08-31T05:01:08.533Z,7.7
2022-08-31T05:07:31.478Z,7.5
2022-08-31T05:13:51.521Z,7.5
2022-08-31T05:20:14.464Z,5.7
2022-08-31T05:26:34.509Z,5.7
2022-08-31T05:32:57.497Z,8.3
2022-08-31T05:39:17.481Z,8.3
2022-08-31T05:45:40.515Z,5.5
2022-08-31T05:52:00.467Z,5.5
2022-08-31T05:58:23.519Z,10.3
2022-08-31T06:04:43.504Z,10.3
2022-08-31T06:11:06.470Z,4
2022-08-31T06:17:26.541Z,4
2022-08-31T06:23:49.467Z,6
2022-08-31T06:30:09.560Z,6
2022-08-31T06:36:32.498Z,5.4
2022-08-31T06:42:52.475Z,5.4
2022-08-31T06:49:15.538Z,5.6
2022-08-31T06:55:35.481Z,5.6
2022-08-31T07:01:58.698Z,4.5
2022-08-31T07:08:18.495Z,4.5
2022-08-31T07:14:41.513Z,3.3
2022-08-31T07:21:01.543Z,3.3
2022-08-31T07:27:24.479Z,5.4
2022-08-31T07:33:44.532Z,5.4
2022-08-31T07:40:08.318Z,3.8
2022-08-31T07:46:27.515Z,3.8
2022-08-31T07:52:50.514Z,4.2
2022-08-31T07:59:10.968Z,4.2
2022-08-31T08:05:35.495Z,2.4
2022-08-31T08:11:53.485Z,2.4
2022-08-31T08:18:16.465Z,2.7
2022-08-31T08:24:36.510Z,2.7
2022-08-31T08:30:59.565Z,3
2022-08-31T08:37:27.178Z,3
2022-08-31T08:43:43.712Z,3.6
2022-08-31T08:50:02.491Z,3.6
2022-08-31T08:56:33.126Z,3.9
2022-08-31T09:02:45.525Z,3.9
2022-08-31T09:09:08.539Z,3.9
2022-08-31T09:15:28.482Z,3.9
2022-08-31T09:21:51.494Z,4.3
2022-08-31T09:28:11.499Z,4.3
2022-08-31T09:34:34.473Z,2.7
2022-08-31T09:40:54.575Z,2.7
2022-08-31T09:47:17.511Z,2.4
2022-08-31T09:53:37.479Z,2.4
2022-08-31T10:00:00.533Z,2.7
2022-08-31T10:16:43.152Z,3.1
2022-08-31T10:23:06.014Z,4.7
2022-08-31T10:29:25.478Z,4.7
2022-08-31T10:35:48.538Z,4.7
2022-08-31T10:42:08.470Z,4.7
2022-08-31T10:48:31.498Z,2
2022-08-31T10:54:51.483Z,2
2022-08-31T11:01:14.510Z,1.8
2022-08-31T11:07:34.523Z,1.8
2022-08-31T11:13:57.481Z,5.3
2022-08-31T11:20:17.496Z,5.3
2022-08-31T11:26:40.684Z,1.8
2022-08-31T11:33:00.591Z,1.8
2022-08-31T11:39:23.509Z,1.2
2022-08-31T11:45:43.516Z,1.2
2022-08-31T11:52:06.528Z,2.6
2022-08-31T11:58:26.516Z,2.6
2022-08-31T12:04:49.476Z,3.4
2022-08-31T12:11:09.564Z,3.4
2022-08-31T12:17:32.473Z,2.5
2022-08-31T12:23:52.719Z,2.5
2022-08-31T12:30:15.488Z,2.2
2022-08-31T12:36:36.721Z,2.2
2022-08-31T12:42:59.489Z,2.9
2022-08-31T12:49:19.488Z,2.9
2022-08-31T12:55:42.503Z,2.7
2022-08-31T13:02:02.578Z,2.7
2022-08-31T13:08:25.524Z,2.1
2022-08-31T13:14:45.468Z,2.1
2022-08-31T13:21:08.546Z,1.6
2022-08-31T13:27:28.476Z,1.6
2022-08-31T13:33:51.530Z,1.7
2022-08-31T13:40:11.525Z,1.7
2022-08-31T13:46:42.690Z,2
2022-08-31T13:53:09.868Z,2
2022-08-31T13:59:17.524Z,2.3
2022-08-31T14:05:37.496Z,2.3
2022-08-31T14:12:00.471Z,2.8
2022-08-31T14:18:24.836Z,2.8
2022-08-31T14:24:43.481Z,1.9
2022-08-31T14:31:04.768Z,1.9
2022-08-31T14:37:27.480Z,2.4
2022-08-31T14:43:47.506Z,2.4
2022-08-31T14:50:10.506Z,1.5
2022-08-31T14:56:30.480Z,1.5
2022-08-31T15:02:53.768Z,0.6
2022-08-31T15:09:13.477Z,0.6
2022-08-31T15:15:36.525Z,2.8
2022-08-31T15:22:02.799Z,2.8
2022-08-31T15:28:19.703Z,2.4
2022-08-31T15:34:39.618Z,2.4
2022-08-31T15:41:02.646Z,1.7
2022-08-31T15:57:28.291Z,1.3
2022-08-31T16:03:51.158Z,1.5
2022-08-31T16:10:12.641Z,1.5
2022-08-31T16:16:34.822Z,1
2022-08-31T16:22:54.650Z,1
2022-08-31T16:29:17.671Z,2.1
2022-08-31T16:35:37.676Z,2.1
2022-08-31T16:42:00.649Z,1.2
2022-08-31T16:48:20.812Z,1.2
2022-08-31T16:54:43.655Z,2
2022-08-31T17:01:03.815Z,2
2022-08-31T17:07:26.678Z,2.6
2022-08-31T17:13:46.655Z,2.6
2022-08-31T17:20:09.709Z,1.2
2022-08-31T17:26:29.651Z,1.2
2022-08-31T17:32:52.675Z,1.3
2022-08-31T17:39:12.675Z,1.3
2022-08-31T17:45:35.651Z,0.8
2022-08-31T17:51:55.677Z,0.8
2022-08-31T17:58:18.740Z,0.9
2022-08-31T18:04:38.701Z,0.9
2022-08-31T18:11:01.671Z,1.8
2022-08-31T18:17:21.643Z,1.8
2022-08-31T18:23:44.682Z,2.5
2022-08-31T18:30:04.650Z,2.5
2022-08-31T18:36:28.632Z,2.3
2022-08-31T18:42:48.675Z,2.3
2022-08-31T18:49:12.700Z,1.2
2022-08-31T18:55:31.700Z,1.2
2022-08-31T19:01:54.751Z,1.3
2022-08-31T19:08:14.668Z,1.3
2022-08-31T19:14:38.554Z,1
2022-08-31T19:20:58.662Z,1
2022-08-31T19:27:21.677Z,1.2
2022-08-31T19:33:42.057Z,1.2
2022-08-31T19:40:07.197Z,1.2
2022-08-31T19:46:28.160Z,1.2
2022-08-31T19:52:51.694Z,1.4
2022-08-31T19:59:11.638Z,1.4
2022-08-31T20:05:35.559Z,2.3
2022-08-31T20:11:54.704Z,2.3
2022-08-31T20:18:17.641Z,1.3
2022-08-31T20:24:37.692Z,1.3
2022-08-31T20:31:00.700Z,1.2
2022-08-31T20:37:20.673Z,1.2
2022-08-31T20:43:43.664Z,1.8
2022-08-31T20:50:03.465Z,1.8
2022-08-31T20:56:26.518Z,0.7
2022-08-31T21:02:46.529Z,0.7
2022-08-31T21:09:09.490Z,1.6
2022-08-31T21:15:29.492Z,1.6
2022-08-31T21:21:52.463Z,1.5
2022-08-31T21:28:12.517Z,1.5
2022-08-31T21:51:01.393Z,3.4
2022-08-31T21:57:21.436Z,3.4
2022-08-31T22:22:55.535Z,3.2
2022-08-31T22:29:15.512Z,3.2
2022-08-31T22:35:38.475Z,3.2
2022-08-31T22:41:58.518Z,3.2
2022-08-31T22:48:21.732Z,2.5
2022-08-31T22:54:41.467Z,2.5
2022-08-31T23:01:04.567Z,2.1
2022-08-31T23:07:24.452Z,2.1
2022-08-31T23:13:47.517Z,2.7
2022-08-31T23:20:07.454Z,2.7
2022-08-31T23:26:30.502Z,1.7
2022-08-31T23:32:50.455Z,1.7
2022-08-31T23:39:13.482Z,3.1
2022-08-31T23:45:33.543Z,3.1
2022-08-31T23:51:56.503Z,2.3
2022-08-31T23:58:16.594Z,2.3
